createdAt,value
2024-05-09T00:00:46.196Z,9.90
2024-05-09T00:03:14.131Z,16.23
2024-05-09T00:05:42.160Z,10.73
2024-05-09T00:08:10.622Z,15.77
2024-05-09T00:10:39.498Z,13.93
2024-05-09T00:13:08.793Z,12.75
2024-05-09T00:15:36.797Z,10.70
2024-05-09T00:18:05.851Z,13.45
2024-05-09T00:20:38.850Z,10.57
2024-05-09T00:23:10.556Z,10.48
2024-05-09T00:25:38.505Z,14.90
2024-05-09T00:28:06.464Z,11.48
2024-05-09T00:30:36.233Z,12.00
2024-05-09T00:33:06.518Z,13.30
2024-05-09T00:35:35.238Z,11.77
2024-05-09T00:38:02.886Z,16.77
2024-05-09T00:40:40.416Z,10.68
2024-05-09T00:43:14.459Z,10.32
2024-05-09T00:45:43.161Z,10.00
2024-05-09T00:48:14.369Z,11.55
2024-05-09T00:50:44.848Z,10.05
2024-05-09T00:53:14.322Z,10.50
2024-05-09T00:55:42.458Z,10.52
2024-05-09T00:58:11.949Z,10.48
2024-05-09T01:00:41.296Z,11.50
2024-05-09T01:03:11.975Z,10.05
2024-05-09T01:05:41.611Z,10.90
2024-05-09T01:08:27.566Z,9.80
2024-05-09T01:10:55.056Z,11.65
2024-05-09T01:13:22.087Z,10.50
2024-05-09T01:15:50.164Z,10.77
2024-05-09T01:18:17.506Z,10.55
2024-05-09T01:20:45.516Z,10.65
2024-05-09T01:23:15.499Z,9.88
2024-05-09T01:25:44.636Z,12.95
2024-05-09T01:28:11.915Z,13.80
2024-05-09T01:30:39.495Z,11.48
2024-05-09T01:33:08.948Z,10.35
2024-05-09T01:35:38.808Z,12.75
2024-05-09T01:38:06.611Z,10.63
2024-05-09T01:40:38.404Z,11.50
2024-05-09T01:43:09.456Z,14.18
2024-05-09T01:45:37.879Z,17.13
2024-05-09T01:48:05.588Z,12.23
2024-05-09T01:50:38.249Z,12.18
2024-05-09T01:53:14.494Z,10.88
2024-05-09T01:55:42.768Z,13.35
2024-05-09T01:58:10.552Z,11.90
2024-05-09T02:00:41.361Z,13.73
2024-05-09T02:03:15.013Z,12.52
2024-05-09T02:05:48.306Z,11.20
2024-05-09T02:08:17.774Z,14.23
2024-05-09T02:10:45.438Z,11.63
2024-05-09T02:13:13.744Z,15.00
2024-05-09T02:15:40.796Z,15.07
2024-05-09T02:18:08.892Z,11.48
2024-05-09T02:20:38.914Z,14.20
2024-05-09T02:23:07.032Z,13.68
2024-05-09T02:25:34.793Z,12.35
2024-05-09T02:28:02.244Z,12.68
2024-05-09T02:30:38.768Z,12.75
2024-05-09T02:33:11.300Z,11.63
2024-05-09T02:35:40.535Z,12.88
2024-05-09T02:38:09.044Z,13.18
2024-05-09T02:40:38.759Z,14.20
2024-05-09T02:43:08.417Z,14.52
2024-05-09T02:45:37.105Z,13.27
2024-05-09T02:48:04.533Z,14.43
2024-05-09T02:50:37.867Z,12.13
2024-05-09T02:53:08.997Z,12.30
2024-05-09T02:55:37.001Z,12.70
2024-05-09T02:58:04.598Z,11.88
2024-05-09T03:00:38.307Z,15.05
2024-05-09T03:03:09.825Z,13.98
2024-05-09T03:05:38.773Z,15.70
2024-05-09T03:08:06.461Z,13.25
2024-05-09T03:10:36.582Z,16.40
2024-05-09T03:13:11.429Z,13.32
2024-05-09T03:15:38.409Z,12.27
2024-05-09T03:18:06.534Z,12.25
2024-05-09T03:20:35.730Z,13.10
2024-05-09T03:23:05.567Z,15.27
2024-05-09T03:25:32.955Z,18.92
2024-05-09T03:27:59.973Z,14.93
2024-05-09T03:30:38.555Z,12.88
2024-05-09T03:33:15.206Z,13.88
2024-05-09T03:35:44.128Z,12.38
2024-05-09T03:38:11.253Z,12.93
2024-05-09T03:40:48.191Z,11.73
2024-05-09T03:43:16.051Z,12.30
2024-05-09T03:45:43.682Z,12.55
2024-05-09T03:48:11.074Z,13.35
2024-05-09T03:50:38.741Z,17.27
2024-05-09T03:53:06.944Z,15.35
2024-05-09T03:55:34.247Z,12.32
2024-05-09T03:58:01.250Z,16.27
2024-05-09T04:00:35.643Z,16.30
2024-05-09T04:03:09.034Z,17.73
2024-05-09T04:05:40.581Z,14.93
2024-05-09T04:08:09.773Z,16.92
2024-05-09T04:10:36.886Z,14.50
2024-05-09T04:13:04.602Z,14.38
2024-05-09T04:15:32.252Z,13.23
2024-05-09T04:18:00.510Z,14.48
2024-05-09T04:20:36.170Z,14.57
2024-05-09T04:23:08.586Z,14.27
2024-05-09T04:25:36.376Z,14.45
2024-05-09T04:28:04.012Z,14.93
2024-05-09T04:30:37.539Z,16.02
2024-05-09T04:33:10.667Z,13.13
2024-05-09T04:35:39.721Z,12.40
2024-05-09T04:38:08.286Z,13.50
2024-05-09T04:40:37.034Z,12.98
2024-05-09T04:43:06.218Z,14.43
2024-05-09T04:45:33.613Z,13.93
2024-05-09T04:48:01.639Z,12.82
2024-05-09T04:50:35.650Z,11.88
2024-05-09T04:53:10.558Z,15.25
2024-05-09T04:55:39.009Z,13.93
2024-05-09T04:58:10.223Z,12.57
2024-05-09T05:00:39.198Z,12.02
2024-05-09T05:03:10.411Z,14.57
2024-05-09T05:05:42.315Z,12.68
2024-05-09T05:08:14.029Z,11.27
2024-05-09T05:10:42.147Z,10.65
2024-05-09T05:13:19.875Z,10.18
2024-05-09T05:15:57.203Z,12.50
2024-05-09T05:18:26.874Z,9.75
2024-05-09T05:20:56.052Z,10.52
2024-05-09T05:23:23.767Z,14.15
2024-05-09T05:25:53.232Z,12.27
2024-05-09T05:28:21.547Z,9.35
2024-05-09T05:30:48.876Z,8.38
2024-05-09T05:33:18.741Z,12.02
2024-05-09T05:35:46.682Z,9.40
2024-05-09T05:38:13.895Z,11.07
2024-05-09T05:40:41.498Z,12.50
2024-05-09T05:43:10.192Z,11.38
2024-05-09T05:45:38.470Z,8.88
2024-05-09T05:48:07.143Z,9.82
2024-05-09T05:50:37.486Z,8.90
2024-05-09T05:53:07.370Z,9.35
2024-05-09T05:55:36.159Z,7.75
2024-05-09T05:58:03.602Z,11.55
2024-05-09T06:00:38.126Z,13.63
2024-05-09T06:03:11.706Z,9.52
2024-05-09T06:05:40.553Z,11.65
2024-05-09T06:08:08.377Z,12.02
2024-05-09T06:10:39.389Z,10.35
2024-05-09T06:13:11.416Z,9.13
2024-05-09T06:15:39.560Z,11.95
2024-05-09T06:18:08.008Z,9.90
2024-05-09T06:20:37.516Z,8.25
2024-05-09T06:23:06.656Z,8.40
2024-05-09T06:25:34.735Z,10.63
2024-05-09T06:28:02.423Z,8.50
2024-05-09T06:30:37.997Z,9.15
2024-05-09T06:33:10.232Z,10.18
2024-05-09T06:35:38.680Z,11.00
2024-05-09T06:38:09.023Z,11.90
2024-05-09T06:40:39.444Z,11.02
2024-05-09T06:43:17.474Z,13.27
2024-05-09T06:45:49.516Z,15.55
2024-05-09T06:48:20.879Z,9.68
2024-05-09T06:50:48.597Z,9.88
2024-05-09T06:53:17.147Z,7.03
2024-05-09T06:55:44.216Z,12.23
2024-05-09T06:58:11.336Z,11.00
2024-05-09T07:00:41.027Z,15.90
2024-05-09T07:03:11.109Z,8.07
2024-05-09T07:05:39.801Z,9.13
2024-05-09T07:08:07.289Z,6.63
2024-05-09T07:10:38.136Z,11.65
2024-05-09T07:13:12.843Z,8.88
2024-05-09T07:15:41.270Z,9.75
2024-05-09T07:18:13.035Z,7.80
2024-05-09T07:20:41.259Z,10.80
2024-05-09T07:23:12.768Z,9.65
2024-05-09T07:25:41.071Z,10.93
2024-05-09T07:28:18.741Z,9.27
2024-05-09T07:30:46.388Z,13.73
2024-05-09T07:33:21.820Z,7.97
2024-05-09T07:35:50.744Z,8.20
2024-05-09T07:38:17.847Z,6.88
2024-05-09T07:40:45.451Z,7.60
2024-05-09T07:43:13.133Z,8.45
2024-05-09T07:45:50.417Z,6.72
2024-05-09T07:52:37.738Z,8.55
2024-05-09T07:53:47.572Z,10.73
2024-05-09T07:56:21.088Z,7.25
2024-05-09T07:58:51.123Z,5.55
2024-05-09T08:01:19.367Z,6.85
2024-05-09T08:03:46.655Z,9.63
2024-05-09T08:06:14.378Z,7.30
2024-05-09T08:08:41.777Z,8.23
2024-05-09T08:11:09.473Z,9.18
2024-05-09T08:13:36.683Z,6.63
2024-05-09T08:16:03.893Z,14.23
2024-05-09T08:18:31.449Z,6.75
2024-05-09T08:20:58.905Z,8.13
2024-05-09T08:23:26.328Z,8.85
2024-05-09T08:25:53.204Z,6.50
2024-05-09T08:28:20.902Z,7.30
2024-05-09T08:30:48.679Z,6.78
2024-05-09T08:33:16.082Z,13.18
2024-05-09T08:35:43.619Z,11.60
2024-05-09T08:38:11.114Z,9.23
2024-05-09T08:40:38.497Z,5.57
2024-05-09T08:43:11.674Z,6.07
2024-05-09T08:45:43.167Z,5.40
2024-05-09T08:48:14.719Z,8.38
2024-05-09T08:50:43.101Z,6.53
2024-05-09T08:53:10.949Z,5.82
2024-05-09T08:55:41.650Z,6.00
2024-05-09T08:58:14.016Z,5.10
2024-05-09T09:00:42.418Z,5.18
2024-05-09T09:03:12.916Z,9.77
2024-05-09T09:05:40.977Z,12.13
2024-05-09T09:08:09.044Z,4.20
2024-05-09T09:10:38.062Z,8.25
2024-05-09T09:13:09.285Z,5.78
2024-05-09T09:15:47.899Z,5.68
2024-05-09T09:18:16.221Z,8.75
2024-05-09T09:20:44.501Z,6.95
2024-05-09T09:23:11.544Z,4.50
2024-05-09T09:25:42.322Z,10.38
2024-05-09T09:28:09.912Z,5.43
2024-05-09T09:30:43.062Z,4.90
2024-05-09T09:33:11.297Z,7.53
2024-05-09T09:35:40.070Z,4.32
2024-05-09T09:38:08.224Z,5.82
2024-05-09T09:40:40.759Z,6.13
2024-05-09T09:43:14.995Z,4.32
2024-05-09T09:45:44.444Z,5.55
2024-05-09T09:48:12.418Z,8.05
2024-05-09T09:50:40.526Z,7.30
2024-05-09T09:53:07.987Z,4.90
2024-05-09T09:55:35.862Z,8.32
2024-05-09T09:58:04.831Z,6.25
2024-05-09T10:00:34.347Z,4.97
2024-05-09T10:03:02.117Z,6.60
2024-05-09T10:05:30.279Z,9.98
2024-05-09T10:07:58.143Z,9.88
2024-05-09T10:10:31.614Z,9.55
2024-05-09T10:13:03.360Z,5.32
2024-05-09T10:15:45.633Z,4.97
2024-05-09T10:18:13.108Z,7.43
2024-05-09T10:20:44.516Z,8.23
2024-05-09T10:23:28.311Z,7.93
2024-05-09T10:26:04.216Z,5.97
2024-05-09T10:28:35.919Z,8.32
2024-05-09T10:31:11.521Z,10.40
2024-05-09T10:33:39.956Z,7.30
2024-05-09T10:36:14.216Z,6.63
2024-05-09T10:38:42.853Z,5.17
2024-05-09T10:41:11.028Z,11.68
2024-05-09T10:43:41.489Z,5.50
2024-05-09T10:46:10.235Z,5.40
2024-05-09T10:48:38.942Z,5.78
2024-05-09T10:51:06.213Z,5.60
2024-05-09T10:53:44.096Z,5.20
2024-05-09T10:56:11.361Z,5.15
2024-05-09T10:58:38.745Z,6.05
2024-05-09T11:01:07.384Z,4.38
2024-05-09T11:03:36.026Z,4.40
2024-05-09T11:06:03.947Z,5.10
2024-05-09T11:08:32.644Z,6.03
2024-05-09T11:11:00.503Z,6.35
2024-05-09T11:13:31.841Z,9.98
2024-05-09T11:16:00.078Z,4.30
2024-05-09T11:18:32.325Z,8.32
2024-05-09T11:21:02.984Z,4.30
2024-05-09T11:23:30.625Z,5.40
2024-05-09T11:25:58.936Z,5.05
2024-05-09T11:28:30.688Z,4.95
2024-05-09T11:31:06.784Z,9.27
2024-05-09T11:33:37.524Z,6.60
2024-05-09T11:36:06.578Z,4.22
2024-05-09T11:38:33.988Z,4.20
2024-05-09T11:41:01.684Z,4.78
2024-05-09T11:43:29.058Z,6.75
2024-05-09T11:45:57.290Z,6.68
2024-05-09T11:48:26.305Z,6.63
2024-05-09T11:50:54.496Z,3.67
2024-05-09T11:53:22.994Z,9.82
2024-05-09T11:55:50.096Z,5.47
2024-05-09T11:58:18.782Z,6.03
2024-05-09T12:00:46.937Z,4.22
2024-05-09T12:03:14.928Z,6.47
2024-05-09T12:05:42.289Z,9.55
2024-05-09T12:08:10.072Z,3.40
2024-05-09T12:10:37.788Z,6.90
2024-05-09T12:13:06.687Z,6.72
2024-05-09T12:15:38.711Z,7.00
2024-05-09T12:18:07.175Z,4.78
2024-05-09T12:20:38.582Z,5.88
2024-05-09T12:23:09.416Z,4.43
2024-05-09T12:25:40.652Z,6.45
2024-05-09T12:28:08.595Z,4.38
2024-05-09T12:30:40.179Z,5.00
2024-05-09T12:33:11.301Z,4.47
2024-05-09T12:35:44.617Z,3.00
2024-05-09T12:38:15.078Z,4.68
2024-05-09T12:40:42.870Z,8.63
2024-05-09T12:43:11.392Z,8.02
2024-05-09T12:45:39.851Z,4.18
2024-05-09T12:48:11.710Z,4.32
2024-05-09T12:50:40.325Z,5.85
2024-05-09T12:53:07.495Z,3.38
2024-05-09T12:55:43.897Z,5.10
2024-05-09T12:58:19.715Z,6.80
2024-05-09T13:00:47.559Z,5.80
2024-05-09T13:03:15.311Z,5.63
2024-05-09T13:05:44.873Z,3.95
2024-05-09T13:08:12.635Z,3.45
2024-05-09T13:10:40.082Z,7.57
2024-05-09T13:13:07.299Z,2.65
2024-05-09T13:15:38.151Z,3.72
2024-05-09T13:18:06.488Z,8.35
2024-05-09T13:20:36.234Z,3.33
2024-05-09T13:23:05.606Z,5.80
2024-05-09T13:25:37.747Z,4.32
2024-05-09T13:28:06.294Z,3.53
2024-05-09T13:30:39.362Z,5.72
2024-05-09T13:33:13.779Z,4.68
2024-05-09T13:35:46.817Z,3.60
2024-05-09T13:38:18.168Z,4.30
2024-05-09T13:40:45.567Z,4.05
2024-05-09T13:43:13.571Z,4.45
2024-05-09T13:45:40.630Z,9.02
2024-05-09T13:48:09.784Z,6.97
2024-05-09T13:50:40.166Z,3.42
2024-05-09T13:53:08.639Z,3.53
2024-05-09T13:55:39.848Z,3.80
2024-05-09T13:58:08.146Z,5.93
2024-05-09T14:00:45.094Z,4.38
2024-05-09T14:03:20.370Z,4.15
2024-05-09T14:05:50.107Z,4.38
2024-05-09T14:08:19.950Z,3.03
2024-05-09T14:10:48.331Z,6.65
2024-05-09T14:13:15.822Z,6.97
2024-05-09T14:15:43.516Z,5.53
2024-05-09T14:18:13.504Z,2.60
2024-05-09T14:20:42.513Z,4.18
2024-05-09T14:23:09.963Z,15.98
2024-05-09T14:25:41.965Z,3.60
2024-05-09T14:28:10.616Z,3.47
2024-05-09T14:30:39.029Z,4.80
2024-05-09T14:33:07.986Z,5.63
2024-05-09T14:35:38.273Z,3.80
2024-05-09T14:38:07.024Z,4.55
2024-05-09T14:40:41.314Z,6.75
2024-05-09T14:43:12.391Z,4.97
2024-05-09T14:45:41.026Z,7.50
2024-05-09T14:48:09.100Z,6.38
2024-05-09T14:50:39.342Z,4.60
2024-05-09T14:53:10.858Z,5.32
2024-05-09T14:55:40.457Z,7.45
2024-05-09T14:58:12.840Z,5.07
2024-05-09T15:00:46.231Z,4.35
2024-05-09T15:03:17.831Z,5.82
2024-05-09T15:05:47.106Z,2.47
2024-05-09T15:08:14.152Z,4.80
2024-05-09T15:10:41.630Z,3.00
2024-05-09T15:13:10.469Z,3.90
2024-05-09T15:15:40.353Z,3.05
2024-05-09T15:18:07.945Z,2.67
2024-05-09T15:20:37.161Z,5.57
2024-05-09T15:23:06.219Z,2.90
2024-05-09T15:25:35.343Z,4.20
2024-05-09T15:28:02.823Z,5.68
2024-05-09T15:30:32.982Z,4.07
2024-05-09T15:33:04.008Z,3.17
2024-05-09T15:35:31.982Z,6.28
2024-05-09T15:37:59.493Z,4.43
2024-05-09T15:40:35.750Z,5.03
2024-05-09T15:43:07.639Z,4.15
2024-05-09T15:45:35.979Z,4.88
2024-05-09T15:48:03.675Z,5.32
2024-05-09T15:50:37.281Z,3.33
2024-05-09T15:53:09.358Z,3.58
2024-05-09T15:55:38.129Z,10.93
2024-05-09T15:58:06.688Z,8.38
2024-05-09T16:00:39.211Z,4.38
2024-05-09T16:03:11.801Z,2.42
2024-05-09T16:05:41.015Z,3.22
2024-05-09T16:08:09.002Z,4.78
2024-05-09T16:10:39.909Z,6.30
2024-05-09T16:13:08.849Z,4.07
2024-05-09T16:15:36.579Z,3.45
2024-05-09T16:18:04.274Z,6.50
2024-05-09T16:20:38.966Z,5.32
2024-05-09T16:23:09.234Z,4.43
2024-05-09T16:25:37.576Z,3.45
2024-05-09T16:28:08.948Z,2.25
2024-05-09T16:30:41.570Z,2.67
2024-05-09T16:33:10.820Z,7.30
2024-05-09T16:35:39.764Z,8.27
2024-05-09T16:38:07.549Z,9.23
2024-05-09T16:40:38.957Z,3.78
2024-05-09T16:43:13.100Z,6.18
2024-05-09T16:45:44.013Z,5.47
2024-05-09T16:48:12.376Z,4.70
2024-05-09T16:50:39.839Z,4.28
2024-05-09T16:53:07.552Z,3.40
2024-05-09T16:55:36.133Z,4.65
2024-05-09T16:58:05.273Z,4.82
2024-05-09T17:00:40.365Z,3.50
2024-05-09T17:03:12.730Z,4.95
2024-05-09T17:05:41.525Z,4.18
2024-05-09T17:08:09.295Z,5.63
2024-05-09T17:10:37.113Z,4.22
2024-05-09T17:13:06.559Z,6.90
2024-05-09T17:15:36.877Z,6.95
2024-05-09T17:18:06.568Z,3.28
2024-05-09T17:20:36.599Z,7.63
2024-05-09T17:23:12.907Z,5.30
2024-05-09T17:25:41.063Z,7.00
2024-05-09T17:28:09.418Z,4.75
2024-05-09T17:30:39.090Z,3.80
2024-05-09T17:33:09.839Z,10.60
2024-05-09T17:35:38.408Z,4.28
2024-05-09T17:38:06.758Z,8.25
2024-05-09T17:40:36.968Z,4.00
2024-05-09T17:43:08.458Z,7.43
2024-05-09T17:45:39.218Z,4.55
2024-05-09T17:48:08.491Z,7.28
2024-05-09T17:50:37.634Z,5.43
2024-05-09T17:53:06.551Z,3.50
2024-05-09T17:55:34.780Z,6.68
2024-05-09T17:58:03.052Z,5.30
2024-05-09T18:00:37.872Z,3.95
2024-05-09T18:03:11.056Z,9.93
2024-05-09T18:05:39.767Z,2.92
2024-05-09T18:08:08.150Z,4.78
2024-05-09T18:10:38.632Z,6.60
2024-05-09T18:13:08.860Z,5.78
2024-05-09T18:15:37.025Z,3.00
2024-05-09T18:18:05.762Z,3.33
2024-05-09T18:20:42.140Z,6.15
2024-05-09T18:23:15.601Z,4.20
2024-05-09T18:25:44.690Z,3.53
2024-05-09T18:28:12.310Z,5.60
2024-05-09T18:30:41.953Z,4.28
2024-05-09T18:33:10.701Z,3.05
2024-05-09T18:35:38.796Z,2.65
2024-05-09T18:38:06.332Z,3.40
2024-05-09T18:40:36.718Z,3.58
2024-05-09T18:43:08.005Z,5.72
2024-05-09T18:45:38.079Z,4.30
2024-05-09T18:48:08.017Z,2.70
2024-05-09T18:50:39.240Z,3.97
2024-05-09T18:53:13.169Z,7.82
2024-05-09T18:55:44.177Z,6.65
2024-05-09T18:58:11.739Z,8.27
2024-05-09T19:00:41.757Z,2.55
2024-05-09T19:03:13.647Z,3.03
2024-05-09T19:05:43.891Z,4.78
2024-05-09T19:08:12.933Z,2.83
2024-05-09T19:10:40.876Z,2.53
2024-05-09T19:13:12.192Z,3.05
2024-05-09T19:15:42.202Z,3.72
2024-05-09T19:18:11.727Z,3.20
2024-05-09T19:20:39.822Z,2.60
2024-05-09T19:23:07.649Z,5.47
2024-05-09T19:25:36.050Z,3.67
2024-05-09T19:28:04.654Z,2.92
2024-05-09T19:30:38.907Z,2.72
2024-05-09T19:33:12.080Z,7.85
2024-05-09T19:35:40.605Z,2.60
2024-05-09T19:38:08.258Z,2.22
2024-05-09T19:40:36.178Z,2.33
2024-05-09T19:43:05.372Z,4.13
2024-05-09T19:45:35.167Z,3.22
2024-05-09T19:48:04.887Z,4.25
2024-05-09T19:50:40.908Z,4.70
2024-05-09T19:53:12.595Z,2.63
2024-05-09T19:55:43.159Z,6.70
2024-05-09T19:58:11.246Z,2.25
2024-05-09T20:00:41.922Z,4.45
2024-05-09T20:03:12.411Z,8.20
2024-05-09T20:05:42.044Z,6.85
2024-05-09T20:08:09.625Z,3.08
2024-05-09T20:10:37.580Z,4.65
2024-05-09T20:13:06.999Z,4.03
2024-05-09T20:15:36.734Z,4.90
2024-05-09T20:18:05.333Z,5.82
2024-05-09T20:20:39.284Z,4.57
2024-05-09T20:23:10.720Z,5.13
2024-05-09T20:25:38.446Z,2.33
2024-05-09T20:28:06.402Z,5.05
2024-05-09T20:30:35.560Z,3.75
2024-05-09T20:33:05.269Z,3.15
2024-05-09T20:35:34.613Z,2.47
2024-05-09T20:38:03.516Z,3.58
2024-05-09T20:40:35.682Z,3.13
2024-05-09T20:43:07.086Z,2.92
2024-05-09T20:45:35.218Z,5.07
2024-05-09T20:48:03.116Z,4.13
2024-05-09T20:50:37.775Z,2.85
2024-05-09T20:53:13.453Z,2.92
2024-05-09T20:55:42.817Z,2.25
2024-05-09T20:58:10.558Z,2.95
2024-05-09T21:00:41.923Z,4.55
2024-05-09T21:03:13.360Z,4.47
2024-05-09T21:05:42.148Z,3.25
2024-05-09T21:08:09.585Z,2.60
2024-05-09T21:10:37.590Z,3.92
2024-05-09T21:13:06.435Z,6.95
2024-05-09T21:15:35.094Z,2.83
2024-05-09T21:18:03.078Z,5.97
2024-05-09T21:20:33.363Z,2.47
2024-05-09T21:23:01.934Z,4.78
2024-05-09T21:25:30.631Z,3.35
2024-05-09T21:27:58.236Z,4.00
2024-05-09T21:30:32.730Z,2.63
2024-05-09T21:33:09.544Z,5.78
2024-05-09T21:35:38.582Z,2.38
2024-05-09T21:38:07.035Z,3.88
2024-05-09T21:40:36.231Z,5.15
2024-05-09T21:43:08.195Z,4.13
2024-05-09T21:45:36.671Z,7.38
2024-05-09T21:48:05.195Z,4.63
2024-05-09T21:50:39.401Z,2.83
2024-05-09T21:53:12.608Z,4.65
2024-05-09T21:55:41.221Z,4.47
2024-05-09T21:58:08.665Z,4.28
2024-05-09T22:00:39.305Z,2.60
2024-05-09T22:03:08.770Z,4.40
2024-05-09T22:05:37.711Z,2.55
2024-05-09T22:08:05.708Z,3.20
2024-05-09T22:10:35.531Z,4.57
2024-05-09T22:13:05.737Z,4.60
2024-05-09T22:15:38.755Z,3.50
2024-05-09T22:18:08.314Z,5.25
2024-05-09T22:20:39.139Z,4.97
2024-05-09T22:23:08.483Z,8.02
2024-05-09T22:25:37.004Z,7.75
2024-05-09T22:28:05.465Z,3.95
2024-05-09T22:30:37.273Z,2.85
2024-05-09T22:33:08.732Z,5.07
2024-05-09T22:35:37.410Z,2.70
2024-05-09T22:38:04.455Z,2.95
2024-05-09T22:40:42.189Z,3.90
2024-05-09T22:43:20.302Z,4.00
2024-05-09T22:45:48.702Z,3.80
2024-05-09T22:48:16.390Z,2.40
2024-05-09T22:50:43.801Z,2.53
2024-05-09T22:53:11.143Z,3.80
2024-05-09T22:55:38.445Z,2.95
2024-05-09T22:58:05.453Z,3.47
2024-05-09T23:00:33.418Z,3.40
2024-05-09T23:03:01.946Z,2.55
2024-05-09T23:05:29.538Z,2.75
2024-05-09T23:07:56.746Z,3.97
2024-05-09T23:10:32.138Z,4.07
2024-05-09T23:13:03.654Z,4.57
2024-05-09T23:15:31.396Z,3.58
2024-05-09T23:17:58.961Z,2.60
2024-05-09T23:20:33.541Z,3.80
2024-05-09T23:23:10.153Z,2.20
2024-05-09T23:25:38.316Z,5.32
2024-05-09T23:28:06.326Z,4.70
2024-05-09T23:30:38.105Z,3.08
2024-05-09T23:33:14.904Z,4.20
2024-05-09T23:35:44.166Z,2.38
2024-05-09T23:38:12.221Z,2.50
2024-05-09T23:40:41.217Z,3.78
2024-05-09T23:43:10.880Z,6.47
2024-05-09T23:45:38.582Z,5.45
2024-05-09T23:48:06.473Z,3.05
2024-05-09T23:50:37.188Z,3.55
2024-05-09T23:53:07.644Z,4.85
2024-05-09T23:55:36.272Z,4.03
2024-05-09T23:58:03.396Z,4.13
